sensor_id;sensor_type;location;lat;lon;timestamp;P1;durP1;ratioP1;P2;durP2;ratioP2
61675;SDS011;47574;52.090;5.244;2022-09-17T00:01:38;14.0;;;3.0;;
61675;SDS011;47574;52.090;5.244;2022-09-17T00:03:14;19.5;;;5.7;;
61675;SDS011;47574;52.090;5.244;2022-09-17T00:04:52;15.2;;;3.5;;
61675;SDS011;47574;52.090;5.244;2022-09-17T00:06:28;10.3;;;2.31;;
61675;SDS011;47574;52.090;5.244;2022-09-17T00:09:46;13.0;;;2.6;;
61675;SDS011;47574;52.090;5.244;2022-09-17T00:11:23;13.3;;;2.8;;
61675;SDS011;47574;52.090;5.244;2022-09-17T00:13:01;16.2;;;3.4;;
61675;SDS011;47574;52.090;5.244;2022-09-17T00:16:21;11.5;;;2.31;;
61675;SDS011;47574;52.090;5.244;2022-09-17T00:18:00;9.21;;;1.9;;
61675;SDS011;47574;52.090;5.244;2022-09-17T00:19:36;11.1;;;2.5;;
61675;SDS011;47574;52.090;5.244;2022-09-17T00:21:14;11.1;;;2.5;;
61675;SDS011;47574;52.090;5.244;2022-09-17T00:24:28;12.7;;;3.1;;
61675;SDS011;47574;52.090;5.244;2022-09-17T00:26:04;13.0;;;2.6;;
61675;SDS011;47574;52.090;5.244;2022-09-17T00:27:40;13.3;;;3.2;;
61675;SDS011;47574;52.090;5.244;2022-09-17T00:30:52;10.6;;;2.4;;
61675;SDS011;47574;52.090;5.244;2022-09-17T00:32:28;13.1;;;2.7;;
61675;SDS011;47574;52.090;5.244;2022-09-17T00:34:05;11.1;;;2.1;;
61675;SDS011;47574;52.090;5.244;2022-09-17T00:37:20;9.6;;;2.31;;
61675;SDS011;47574;52.090;5.244;2022-09-17T00:38:57;11.8;;;2.4;;
61675;SDS011;47574;52.090;5.244;2022-09-17T00:40:35;13.3;;;4.0;;
61675;SDS011;47574;52.090;5.244;2022-09-17T00:42:14;12.3;;;3.0;;
61675;SDS011;47574;52.090;5.244;2022-09-17T00:45:31;12.9;;;3.0;;
61675;SDS011;47574;52.090;5.244;2022-09-17T00:47:10;11.0;;;3.0;;
61675;SDS011;47574;52.090;5.244;2022-09-17T00:48:51;10.3;;;2.31;;
61675;SDS011;47574;52.090;5.244;2022-09-17T00:50:31;11.2;;;2.9;;
61675;SDS011;47574;52.090;5.244;2022-09-17T00:53:50;10.1;;;2.8;;
61675;SDS011;47574;52.090;5.244;2022-09-17T00:55:27;13.2;;;2.4;;
61675;SDS011;47574;52.090;5.244;2022-09-17T00:57:06;12.2;;;2.5;;
61675;SDS011;47574;52.090;5.244;2022-09-17T01:00:19;12.3;;;2.7;;
61675;SDS011;47574;52.090;5.244;2022-09-17T01:01:57;11.1;;;2.6;;
61675;SDS011;47574;52.090;5.244;2022-09-17T01:03:34;15.7;;;3.3;;
61675;SDS011;47574;52.090;5.244;2022-09-17T01:05:12;14.1;;;4.1;;
61675;SDS011;47574;52.090;5.244;2022-09-17T01:08:46;12.6;;;3.2;;
61675;SDS011;47574;52.090;5.244;2022-09-17T01:10:42;14.6;;;3.0;;
61675;SDS011;47574;52.090;5.244;2022-09-17T01:12:40;15.2;;;3.2;;
61675;SDS011;47574;52.090;5.244;2022-09-17T01:14:35;10.1;;;2.9;;
61675;SDS011;47574;52.090;5.244;2022-09-17T01:16:33;11.4;;;2.9;;
61675;SDS011;47574;52.090;5.244;2022-09-17T01:18:21;10.5;;;2.7;;
61675;SDS011;47574;52.090;5.244;2022-09-17T01:20:26;11.8;;;2.5;;
61675;SDS011;47574;52.090;5.244;2022-09-17T01:22:39;12.8;;;2.9;;
61675;SDS011;47574;52.090;5.244;2022-09-17T01:24:35;17.3;;;3.9;;
61675;SDS011;47574;52.090;5.244;2022-09-17T01:26:42;15.1;;;3.4;;
61675;SDS011;47574;52.090;5.244;2022-09-17T01:30:18;14.8;;;2.9;;
61675;SDS011;47574;52.090;5.244;2022-09-17T01:32:34;12.9;;;2.5;;
61675;SDS011;47574;52.090;5.244;2022-09-17T01:34:19;10.9;;;2.5;;
61675;SDS011;47574;52.090;5.244;2022-09-17T01:38:08;12.4;;;2.5;;
61675;SDS011;47574;52.090;5.244;2022-09-17T01:39:54;12.1;;;2.31;;
61675;SDS011;47574;52.090;5.244;2022-09-17T01:41:40;11.9;;;2.7;;
61675;SDS011;47574;52.090;5.244;2022-09-17T01:43:28;12.3;;;2.8;;
61675;SDS011;47574;52.090;5.244;2022-09-17T01:45:10;11.3;;;2.1;;
61675;SDS011;47574;52.090;5.244;2022-09-17T01:46:54;10.7;;;2.21;;
61675;SDS011;47574;52.090;5.244;2022-09-17T01:50:21;10.21;;;1.8;;
61675;SDS011;47574;52.090;5.244;2022-09-17T01:52:05;8.6;;;2.21;;
61675;SDS011;47574;52.090;5.244;2022-09-17T01:53:47;11.4;;;2.1;;
61675;SDS011;47574;52.090;5.244;2022-09-17T01:55:30;7.6;;;1.7;;
61675;SDS011;47574;52.090;5.244;2022-09-17T01:58:56;8.31;;;1.7;;
61675;SDS011;47574;52.090;5.244;2022-09-17T02:00:37;9.81;;;2.0;;
61675;SDS011;47574;52.090;5.244;2022-09-17T02:02:20;11.3;;;2.1;;
61675;SDS011;47574;52.090;5.244;2022-09-17T02:04:03;9.31;;;1.7;;
61675;SDS011;47574;52.090;5.244;2022-09-17T02:05:45;10.3;;;1.8;;
61675;SDS011;47574;52.090;5.244;2022-09-17T02:09:10;7.6;;;1.6;;
61675;SDS011;47574;52.090;5.244;2022-09-17T02:10:53;12.0;;;1.8;;
61675;SDS011;47574;52.090;5.244;2022-09-17T02:12:35;9.21;;;1.9;;
61675;SDS011;47574;52.090;5.244;2022-09-17T02:14:17;9.31;;;1.6;;
61675;SDS011;47574;52.090;5.244;2022-09-17T02:17:43;7.2;;;1.8;;
61675;SDS011;47574;52.090;5.244;2022-09-17T02:19:26;10.7;;;2.31;;
61675;SDS011;47574;52.090;5.244;2022-09-17T02:21:06;8.2;;;1.9;;
61675;SDS011;47574;52.090;5.244;2022-09-17T02:22:47;9.21;;;2.0;;
61675;SDS011;47574;52.090;5.244;2022-09-17T02:26:14;10.21;;;1.7;;
61675;SDS011;47574;52.090;5.244;2022-09-17T02:27:56;9.31;;;2.1;;
61675;SDS011;47574;52.090;5.244;2022-09-17T02:29:37;7.8;;;2.0;;
61675;SDS011;47574;52.090;5.244;2022-09-17T02:31:16;10.1;;;2.1;;
61675;SDS011;47574;52.090;5.244;2022-09-17T02:32:53;10.5;;;1.8;;
61675;SDS011;47574;52.090;5.244;2022-09-17T02:36:07;6.3;;;2.0;;
61675;SDS011;47574;52.090;5.244;2022-09-17T02:37:43;8.0;;;1.6;;
61675;SDS011;47574;52.090;5.244;2022-09-17T02:39:21;9.9;;;1.9;;
61675;SDS011;47574;52.090;5.244;2022-09-17T02:42:51;7.5;;;1.8;;
61675;SDS011;47574;52.090;5.244;2022-09-17T02:44:43;12.8;;;2.1;;
61675;SDS011;47574;52.090;5.244;2022-09-17T02:46:42;8.6;;;1.9;;
61675;SDS011;47574;52.090;5.244;2022-09-17T02:48:39;8.5;;;2.0;;
61675;SDS011;47574;52.090;5.244;2022-09-17T02:50:43;9.81;;;2.0;;
61675;SDS011;47574;52.090;5.244;2022-09-17T02:52:39;10.1;;;1.9;;
61675;SDS011;47574;52.090;5.244;2022-09-17T02:54:30;10.1;;;2.0;;
61675;SDS011;47574;52.090;5.244;2022-09-17T02:56:17;10.7;;;1.8;;
61675;SDS011;47574;52.090;5.244;2022-09-17T02:58:04;8.2;;;2.0;;
61675;SDS011;47574;52.090;5.244;2022-09-17T03:01:37;11.1;;;2.4;;
61675;SDS011;47574;52.090;5.244;2022-09-17T03:03:19;10.6;;;2.1;;
61675;SDS011;47574;52.090;5.244;2022-09-17T03:05:03;10.7;;;2.31;;
61675;SDS011;47574;52.090;5.244;2022-09-17T03:06:42;11.9;;;2.4;;
61675;SDS011;47574;52.090;5.244;2022-09-17T03:10:03;10.5;;;1.8;;
61675;SDS011;47574;52.090;5.244;2022-09-17T03:11:40;10.6;;;2.0;;
61675;SDS011;47574;52.090;5.244;2022-09-17T03:13:18;12.2;;;2.1;;
61675;SDS011;47574;52.090;5.244;2022-09-17T03:14:54;14.0;;;2.5;;
61675;SDS011;47574;52.090;5.244;2022-09-17T03:18:08;13.1;;;2.1;;
61675;SDS011;47574;52.090;5.244;2022-09-17T03:19:44;14.8;;;2.5;;
61675;SDS011;47574;52.090;5.244;2022-09-17T03:21:20;12.3;;;2.4;;
61675;SDS011;47574;52.090;5.244;2022-09-17T03:24:32;11.9;;;2.31;;
61675;SDS011;47574;52.090;5.244;2022-09-17T03:26:08;9.0;;;1.8;;
61675;SDS011;47574;52.090;5.244;2022-09-17T03:27:44;12.8;;;2.31;;
61675;SDS011;47574;52.090;5.244;2022-09-17T03:30:57;12.1;;;2.31;;
61675;SDS011;47574;52.090;5.244;2022-09-17T03:32:33;11.7;;;2.21;;
61675;SDS011;47574;52.090;5.244;2022-09-17T03:34:10;11.1;;;2.21;;
61675;SDS011;47574;52.090;5.244;2022-09-17T03:35:46;12.3;;;2.31;;
61675;SDS011;47574;52.090;5.244;2022-09-17T03:39:00;12.3;;;2.1;;
61675;SDS011;47574;52.090;5.244;2022-09-17T03:40:36;11.6;;;2.21;;
61675;SDS011;47574;52.090;5.244;2022-09-17T03:42:13;9.6;;;2.21;;
61675;SDS011;47574;52.090;5.244;2022-09-17T03:45:26;9.1;;;2.1;;
61675;SDS011;47574;52.090;5.244;2022-09-17T03:48:39;10.8;;;2.8;;
61675;SDS011;47574;52.090;5.244;2022-09-17T03:51:51;9.6;;;2.21;;
61675;SDS011;47574;52.090;5.244;2022-09-17T03:53:27;9.9;;;2.0;;
61675;SDS011;47574;52.090;5.244;2022-09-17T03:55:04;10.0;;;1.7;;
61675;SDS011;47574;52.090;5.244;2022-09-17T03:56:41;11.1;;;2.1;;
61675;SDS011;47574;52.090;5.244;2022-09-17T03:59:53;7.1;;;2.0;;
61675;SDS011;47574;52.090;5.244;2022-09-17T04:01:29;11.0;;;2.31;;
61675;SDS011;47574;52.090;5.244;2022-09-17T04:03:05;10.7;;;2.4;;
61675;SDS011;47574;52.090;5.244;2022-09-17T04:06:18;9.31;;;2.0;;
61675;SDS011;47574;52.090;5.244;2022-09-17T04:07:56;10.7;;;2.0;;
61675;SDS011;47574;52.090;5.244;2022-09-17T04:09:32;11.1;;;2.21;;
61675;SDS011;47574;52.090;5.244;2022-09-17T04:12:45;10.6;;;2.0;;
61675;SDS011;47574;52.090;5.244;2022-09-17T04:14:21;9.71;;;2.0;;
61675;SDS011;47574;52.090;5.244;2022-09-17T04:15:57;8.1;;;1.7;;
61675;SDS011;47574;52.090;5.244;2022-09-17T04:17:33;9.1;;;1.5;;
61675;SDS011;47574;52.090;5.244;2022-09-17T04:20:46;10.3;;;1.9;;
61675;SDS011;47574;52.090;5.244;2022-09-17T04:22:22;7.4;;;1.5;;
61675;SDS011;47574;52.090;5.244;2022-09-17T04:24:00;6.7;;;1.5;;
61675;SDS011;47574;52.090;5.244;2022-09-17T04:27:13;10.4;;;1.7;;
61675;SDS011;47574;52.090;5.244;2022-09-17T04:28:49;7.2;;;1.7;;
61675;SDS011;47574;52.090;5.244;2022-09-17T04:30:25;7.4;;;1.7;;
61675;SDS011;47574;52.090;5.244;2022-09-17T04:33:38;7.4;;;1.4;;
61675;SDS011;47574;52.090;5.244;2022-09-17T04:35:15;8.2;;;1.5;;
61675;SDS011;47574;52.090;5.244;2022-09-17T04:36:51;6.8;;;1.5;;
61675;SDS011;47574;52.090;5.244;2022-09-17T04:38:28;6.3;;;1.3;;
61675;SDS011;47574;52.090;5.244;2022-09-17T04:41:42;6.8;;;1.9;;
61675;SDS011;47574;52.090;5.244;2022-09-17T04:43:18;7.5;;;1.6;;
61675;SDS011;47574;52.090;5.244;2022-09-17T04:44:54;6.7;;;1.8;;
61675;SDS011;47574;52.090;5.244;2022-09-17T04:48:07;8.31;;;1.8;;
61675;SDS011;47574;52.090;5.244;2022-09-17T04:49:43;4.7;;;1.2;;
61675;SDS011;47574;52.090;5.244;2022-09-17T04:51:19;4.7;;;1.2;;
61675;SDS011;47574;52.090;5.244;2022-09-17T04:54:32;6.5;;;1.8;;
61675;SDS011;47574;52.090;5.244;2022-09-17T04:56:08;7.3;;;1.8;;
61675;SDS011;47574;52.090;5.244;2022-09-17T04:57:45;7.1;;;1.2;;
61675;SDS011;47574;52.090;5.244;2022-09-17T04:59:22;4.1;;;1.0;;
61675;SDS011;47574;52.090;5.244;2022-09-17T05:02:34;5.4;;;1.0;;
61675;SDS011;47574;52.090;5.244;2022-09-17T05:04:10;5.4;;;1.11;;
61675;SDS011;47574;52.090;5.244;2022-09-17T05:05:46;5.9;;;1.4;;
61675;SDS011;47574;52.090;5.244;2022-09-17T05:08:59;5.8;;;1.11;;
61675;SDS011;47574;52.090;5.244;2022-09-17T05:10:35;5.7;;;1.3;;
61675;SDS011;47574;52.090;5.244;2022-09-17T05:12:12;4.91;;;1.0;;
61675;SDS011;47574;52.090;5.244;2022-09-17T05:15:24;6.6;;;1.2;;
61675;SDS011;47574;52.090;5.244;2022-09-17T05:17:01;5.7;;;1.0;;
61675;SDS011;47574;52.090;5.244;2022-09-17T05:18:37;5.3;;;1.2;;
61675;SDS011;47574;52.090;5.244;2022-09-17T05:21:51;5.3;;;1.11;;
61675;SDS011;47574;52.090;5.244;2022-09-17T05:23:27;8.1;;;1.4;;
61675;SDS011;47574;52.090;5.244;2022-09-17T05:25:04;4.8;;;1.11;;
61675;SDS011;47574;52.090;5.244;2022-09-17T05:26:41;4.0;;;1.0;;
61675;SDS011;47574;52.090;5.244;2022-09-17T05:29:53;7.0;;;1.5;;
61675;SDS011;47574;52.090;5.244;2022-09-17T05:31:30;7.0;;;1.5;;
61675;SDS011;47574;52.090;5.244;2022-09-17T05:33:06;4.0;;;1.11;;
61675;SDS011;47574;52.090;5.244;2022-09-17T05:36:19;4.0;;;1.11;;
61675;SDS011;47574;52.090;5.244;2022-09-17T05:37:55;5.5;;;1.3;;
61675;SDS011;47574;52.090;5.244;2022-09-17T05:39:33;5.0;;;1.11;;
61675;SDS011;47574;52.090;5.244;2022-09-17T05:42:45;6.6;;;1.4;;
61675;SDS011;47574;52.090;5.244;2022-09-17T05:44:22;7.1;;;1.8;;
61675;SDS011;47574;52.090;5.244;2022-09-17T05:46:00;6.7;;;1.11;;
61675;SDS011;47574;52.090;5.244;2022-09-17T05:47:36;7.5;;;1.7;;
61675;SDS011;47574;52.090;5.244;2022-09-17T05:50:50;5.9;;;1.3;;
61675;SDS011;47574;52.090;5.244;2022-09-17T05:52:27;8.6;;;1.3;;
61675;SDS011;47574;52.090;5.244;2022-09-17T05:54:04;6.4;;;1.4;;
61675;SDS011;47574;52.090;5.244;2022-09-17T05:57:19;4.61;;;1.4;;
61675;SDS011;47574;52.090;5.244;2022-09-17T05:58:56;4.41;;;1.0;;
61675;SDS011;47574;52.090;5.244;2022-09-17T06:00:32;7.1;;;1.3;;
61675;SDS011;47574;52.090;5.244;2022-09-17T06:02:10;7.8;;;1.3;;
61675;SDS011;47574;52.090;5.244;2022-09-17T06:05:25;5.5;;;1.4;;
61675;SDS011;47574;52.090;5.244;2022-09-17T06:07:02;6.7;;;1.5;;
61675;SDS011;47574;52.090;5.244;2022-09-17T06:08:39;5.8;;;1.2;;
61675;SDS011;47574;52.090;5.244;2022-09-17T06:11:52;5.6;;;1.11;;
61675;SDS011;47574;52.090;5.244;2022-09-17T06:13:30;6.1;;;0.9;;
61675;SDS011;47574;52.090;5.244;2022-09-17T06:15:08;5.9;;;1.2;;
61675;SDS011;47574;52.090;5.244;2022-09-17T06:16:46;8.2;;;1.6;;
61675;SDS011;47574;52.090;5.244;2022-09-17T06:20:00;5.5;;;1.3;;
61675;SDS011;47574;52.090;5.244;2022-09-17T06:21:37;6.0;;;1.3;;
61675;SDS011;47574;52.090;5.244;2022-09-17T06:23:13;5.5;;;1.5;;
61675;SDS011;47574;52.090;5.244;2022-09-17T06:26:26;6.8;;;1.3;;
61675;SDS011;47574;52.090;5.244;2022-09-17T06:28:03;4.1;;;0.8;;
61675;SDS011;47574;52.090;5.244;2022-09-17T06:29:39;4.61;;;1.11;;
61675;SDS011;47574;52.090;5.244;2022-09-17T06:32:52;5.8;;;1.2;;
61675;SDS011;47574;52.090;5.244;2022-09-17T06:34:29;5.9;;;1.4;;
61675;SDS011;47574;52.090;5.244;2022-09-17T06:36:06;5.5;;;1.3;;
61675;SDS011;47574;52.090;5.244;2022-09-17T06:37:44;9.4;;;1.8;;
61675;SDS011;47574;52.090;5.244;2022-09-17T06:40:57;6.9;;;1.3;;
61675;SDS011;47574;52.090;5.244;2022-09-17T06:42:33;5.6;;;1.11;;
61675;SDS011;47574;52.090;5.244;2022-09-17T06:44:09;4.5;;;1.11;;
61675;SDS011;47574;52.090;5.244;2022-09-17T06:47:27;4.1;;;1.0;;
61675;SDS011;47574;52.090;5.244;2022-09-17T06:49:03;6.5;;;1.3;;
61675;SDS011;47574;52.090;5.244;2022-09-17T06:50:39;4.91;;;1.11;;
61675;SDS011;47574;52.090;5.244;2022-09-17T06:53:52;5.7;;;1.11;;
61675;SDS011;47574;52.090;5.244;2022-09-17T06:55:28;6.2;;;1.4;;
61675;SDS011;47574;52.090;5.244;2022-09-17T06:57:04;5.11;;;1.3;;
61675;SDS011;47574;52.090;5.244;2022-09-17T06:58:42;8.0;;;1.2;;
61675;SDS011;47574;52.090;5.244;2022-09-17T07:01:55;6.7;;;1.3;;
61675;SDS011;47574;52.090;5.244;2022-09-17T07:03:31;10.3;;;1.7;;
61675;SDS011;47574;52.090;5.244;2022-09-17T07:05:08;7.3;;;1.3;;
61675;SDS011;47574;52.090;5.244;2022-09-17T07:08:20;5.2;;;1.4;;
61675;SDS011;47574;52.090;5.244;2022-09-17T07:09:57;10.7;;;1.7;;
61675;SDS011;47574;52.090;5.244;2022-09-17T07:11:33;5.0;;;1.11;;
61675;SDS011;47574;52.090;5.244;2022-09-17T07:14:47;5.11;;;1.4;;
61675;SDS011;47574;52.090;5.244;2022-09-17T07:16:23;6.3;;;1.4;;
61675;SDS011;47574;52.090;5.244;2022-09-17T07:18:06;7.0;;;1.2;;
61675;SDS011;47574;52.090;5.244;2022-09-17T07:19:43;8.4;;;1.3;;
61675;SDS011;47574;52.090;5.244;2022-09-17T07:22:56;5.9;;;1.0;;
61675;SDS011;47574;52.090;5.244;2022-09-17T07:24:33;7.4;;;1.3;;
61675;SDS011;47574;52.090;5.244;2022-09-17T07:26:11;6.6;;;1.4;;
61675;SDS011;47574;52.090;5.244;2022-09-17T07:29:26;7.1;;;1.2;;
61675;SDS011;47574;52.090;5.244;2022-09-17T07:31:03;6.5;;;1.4;;
61675;SDS011;47574;52.090;5.244;2022-09-17T07:32:40;7.0;;;1.11;;
61675;SDS011;47574;52.090;5.244;2022-09-17T07:34:17;6.4;;;1.8;;
61675;SDS011;47574;52.090;5.244;2022-09-17T07:37:31;6.9;;;1.6;;
61675;SDS011;47574;52.090;5.244;2022-09-17T07:39:08;5.11;;;1.8;;
61675;SDS011;47574;52.090;5.244;2022-09-17T07:40:51;6.6;;;1.3;;
61675;SDS011;47574;52.090;5.244;2022-09-17T07:44:05;4.0;;;1.2;;
61675;SDS011;47574;52.090;5.244;2022-09-17T07:45:41;6.0;;;1.11;;
61675;SDS011;47574;52.090;5.244;2022-09-17T07:47:17;6.1;;;1.4;;
61675;SDS011;47574;52.090;5.244;2022-09-17T07:48:53;6.1;;;1.2;;
61675;SDS011;47574;52.090;5.244;2022-09-17T07:52:08;7.1;;;1.5;;
61675;SDS011;47574;52.090;5.244;2022-09-17T07:53:44;6.9;;;1.5;;
61675;SDS011;47574;52.090;5.244;2022-09-17T07:55:26;6.1;;;2.1;;
61675;SDS011;47574;52.090;5.244;2022-09-17T07:58:39;8.31;;;1.3;;
61675;SDS011;47574;52.090;5.244;2022-09-17T08:00:15;5.7;;;0.9;;
61675;SDS011;47574;52.090;5.244;2022-09-17T08:01:51;9.71;;;1.8;;
61675;SDS011;47574;52.090;5.244;2022-09-17T08:03:27;5.5;;;1.3;;
61675;SDS011;47574;52.090;5.244;2022-09-17T08:06:40;7.1;;;1.3;;
61675;SDS011;47574;52.090;5.244;2022-09-17T08:08:16;5.5;;;1.4;;
61675;SDS011;47574;52.090;5.244;2022-09-17T08:09:53;6.9;;;1.2;;
61675;SDS011;47574;52.090;5.244;2022-09-17T08:13:06;3.9;;;1.0;;
61675;SDS011;47574;52.090;5.244;2022-09-17T08:14:43;7.2;;;1.11;;
61675;SDS011;47574;52.090;5.244;2022-09-17T08:16:19;7.2;;;1.4;;
61675;SDS011;47574;52.090;5.244;2022-09-17T08:19:33;5.3;;;1.11;;
61675;SDS011;47574;52.090;5.244;2022-09-17T08:21:10;5.7;;;1.11;;
61675;SDS011;47574;52.090;5.244;2022-09-17T08:22:49;5.0;;;1.2;;
61675;SDS011;47574;52.090;5.244;2022-09-17T08:24:25;6.7;;;0.9;;
61675;SDS011;47574;52.090;5.244;2022-09-17T08:27:40;5.3;;;1.2;;
61675;SDS011;47574;52.090;5.244;2022-09-17T08:29:16;6.5;;;1.4;;
61675;SDS011;47574;52.090;5.244;2022-09-17T08:30:52;7.3;;;1.3;;
61675;SDS011;47574;52.090;5.244;2022-09-17T08:34:10;5.9;;;1.2;;
61675;SDS011;47574;52.090;5.244;2022-09-17T08:35:49;5.6;;;1.5;;
61675;SDS011;47574;52.090;5.244;2022-09-17T08:37:26;5.6;;;1.3;;
61675;SDS011;47574;52.090;5.244;2022-09-17T08:39:03;6.5;;;1.3;;
61675;SDS011;47574;52.090;5.244;2022-09-17T08:42:35;6.1;;;1.0;;
61675;SDS011;47574;52.090;5.244;2022-09-17T08:44:20;2.9;;;1.11;;
61675;SDS011;47574;52.090;5.244;2022-09-17T08:46:01;6.1;;;1.11;;
61675;SDS011;47574;52.090;5.244;2022-09-17T08:47:38;5.6;;;1.11;;
61675;SDS011;47574;52.090;5.244;2022-09-17T08:51:09;3.7;;;0.9;;
61675;SDS011;47574;52.090;5.244;2022-09-17T08:53:08;6.9;;;1.0;;
61675;SDS011;47574;52.090;5.244;2022-09-17T08:55:13;6.0;;;1.2;;
61675;SDS011;47574;52.090;5.244;2022-09-17T08:57:03;7.4;;;1.3;;
61675;SDS011;47574;52.090;5.244;2022-09-17T08:58:55;7.6;;;1.11;;
61675;SDS011;47574;52.090;5.244;2022-09-17T09:00:43;4.61;;;1.3;;
61675;SDS011;47574;52.090;5.244;2022-09-17T09:02:31;5.11;;;1.3;;
61675;SDS011;47574;52.090;5.244;2022-09-17T09:04:31;5.11;;;1.0;;
61675;SDS011;47574;52.090;5.244;2022-09-17T09:06:21;3.8;;;1.0;;
61675;SDS011;47574;52.090;5.244;2022-09-17T09:09:48;5.2;;;0.9;;
61675;SDS011;47574;52.090;5.244;2022-09-17T09:11:32;3.7;;;0.8;;
61675;SDS011;47574;52.090;5.244;2022-09-17T09:13:10;4.0;;;0.9;;
61675;SDS011;47574;52.090;5.244;2022-09-17T09:14:55;4.2;;;0.9;;
61675;SDS011;47574;52.090;5.244;2022-09-17T09:18:17;5.6;;;0.9;;
61675;SDS011;47574;52.090;5.244;2022-09-17T09:19:55;4.0;;;0.9;;
61675;SDS011;47574;52.090;5.244;2022-09-17T09:21:33;5.2;;;0.9;;
61675;SDS011;47574;52.090;5.244;2022-09-17T09:23:25;4.2;;;0.8;;
61675;SDS011;47574;52.090;5.244;2022-09-17T09:25:13;2.7;;;0.9;;
61675;SDS011;47574;52.090;5.244;2022-09-17T09:28:51;6.9;;;1.4;;
61675;SDS011;47574;52.090;5.244;2022-09-17T09:31:10;4.5;;;0.9;;
61675;SDS011;47574;52.090;5.244;2022-09-17T09:33:05;4.1;;;0.8;;
61675;SDS011;47574;52.090;5.244;2022-09-17T09:34:48;4.41;;;0.8;;
61675;SDS011;47574;52.090;5.244;2022-09-17T09:36:26;5.11;;;1.0;;
61675;SDS011;47574;52.090;5.244;2022-09-17T09:38:09;5.9;;;1.2;;
61675;SDS011;47574;52.090;5.244;2022-09-17T09:39:59;5.8;;;0.9;;
61675;SDS011;47574;52.090;5.244;2022-09-17T09:41:57;4.0;;;1.11;;
61675;SDS011;47574;52.090;5.244;2022-09-17T09:45:20;4.3;;;1.2;;
61675;SDS011;47574;52.090;5.244;2022-09-17T09:47:23;5.4;;;1.2;;
61675;SDS011;47574;52.090;5.244;2022-09-17T09:49:21;6.1;;;1.2;;
61675;SDS011;47574;52.090;5.244;2022-09-17T09:51:15;4.8;;;1.11;;
61675;SDS011;47574;52.090;5.244;2022-09-17T09:53:05;6.6;;;1.11;;
61675;SDS011;47574;52.090;5.244;2022-09-17T09:56:48;7.0;;;1.3;;
61675;SDS011;47574;52.090;5.244;2022-09-17T09:58:33;8.1;;;1.8;;
61675;SDS011;47574;52.090;5.244;2022-09-17T10:01:59;5.4;;;1.3;;
61675;SDS011;47574;52.090;5.244;2022-09-17T10:03:35;5.2;;;1.0;;
61675;SDS011;47574;52.090;5.244;2022-09-17T10:05:16;5.6;;;1.11;;
61675;SDS011;47574;52.090;5.244;2022-09-17T10:06:52;6.2;;;1.5;;
61675;SDS011;47574;52.090;5.244;2022-09-17T10:10:13;4.91;;;1.3;;
61675;SDS011;47574;52.090;5.244;2022-09-17T10:12:05;5.0;;;1.11;;
61675;SDS011;47574;52.090;5.244;2022-09-17T10:13:52;5.0;;;1.2;;
61675;SDS011;47574;52.090;5.244;2022-09-17T10:15:50;4.2;;;1.0;;
61675;SDS011;47574;52.090;5.244;2022-09-17T10:17:27;3.4;;;0.9;;
61675;SDS011;47574;52.090;5.244;2022-09-17T10:20:50;3.5;;;1.11;;
61675;SDS011;47574;52.090;5.244;2022-09-17T10:22:29;5.11;;;1.3;;
61675;SDS011;47574;52.090;5.244;2022-09-17T10:24:11;5.8;;;1.11;;
61675;SDS011;47574;52.090;5.244;2022-09-17T10:25:57;4.8;;;0.8;;
61675;SDS011;47574;52.090;5.244;2022-09-17T10:29:12;4.1;;;1.11;;
61675;SDS011;47574;52.090;5.244;2022-09-17T10:30:54;6.1;;;1.0;;
61675;SDS011;47574;52.090;5.244;2022-09-17T10:32:32;5.5;;;1.0;;
61675;SDS011;47574;52.090;5.244;2022-09-17T10:34:10;4.91;;;0.9;;
61675;SDS011;47574;52.090;5.244;2022-09-17T10:37:42;4.2;;;1.0;;
61675;SDS011;47574;52.090;5.244;2022-09-17T10:39:28;4.61;;;0.9;;
61675;SDS011;47574;52.090;5.244;2022-09-17T10:41:10;5.2;;;1.11;;
61675;SDS011;47574;52.090;5.244;2022-09-17T10:42:49;5.2;;;1.2;;
61675;SDS011;47574;52.090;5.244;2022-09-17T10:44:52;5.6;;;1.2;;
61675;SDS011;47574;52.090;5.244;2022-09-17T10:48:12;5.7;;;1.3;;
61675;SDS011;47574;52.090;5.244;2022-09-17T10:49:53;7.8;;;1.4;;
61675;SDS011;47574;52.090;5.244;2022-09-17T10:51:32;7.1;;;1.9;;
61675;SDS011;47574;52.090;5.244;2022-09-17T10:53:14;7.3;;;1.6;;
61675;SDS011;47574;52.090;5.244;2022-09-17T10:57:06;7.2;;;1.4;;
61675;SDS011;47574;52.090;5.244;2022-09-17T11:00:43;5.2;;;1.5;;
61675;SDS011;47574;52.090;5.244;2022-09-17T11:02:44;5.2;;;1.5;;
61675;SDS011;47574;52.090;5.244;2022-09-17T11:09:58;7.2;;;1.9;;
61675;SDS011;47574;52.090;5.244;2022-09-17T11:11:51;8.9;;;1.9;;
61675;SDS011;47574;52.090;5.244;2022-09-17T11:15:29;6.3;;;1.8;;
61675;SDS011;47574;52.090;5.244;2022-09-17T11:17:24;12.7;;;2.21;;
61675;SDS011;47574;52.090;5.244;2022-09-17T11:19:18;7.5;;;2.0;;
61675;SDS011;47574;52.090;5.244;2022-09-17T11:21:14;7.2;;;1.8;;
61675;SDS011;47574;52.090;5.244;2022-09-17T11:23:06;8.6;;;1.9;;
61675;SDS011;47574;52.090;5.244;2022-09-17T11:25:06;8.5;;;2.4;;
61675;SDS011;47574;52.090;5.244;2022-09-17T11:27:01;7.9;;;2.0;;
61675;SDS011;47574;52.090;5.244;2022-09-17T11:28:50;11.4;;;2.4;;
61675;SDS011;47574;52.090;5.244;2022-09-17T11:30:42;14.1;;;2.9;;
61675;SDS011;47574;52.090;5.244;2022-09-17T11:34:26;11.2;;;2.1;;
61675;SDS011;47574;52.090;5.244;2022-09-17T11:36:09;13.0;;;2.8;;
61675;SDS011;47574;52.090;5.244;2022-09-17T11:37:49;11.7;;;3.2;;
61675;SDS011;47574;52.090;5.244;2022-09-17T11:39:32;13.1;;;2.8;;
61675;SDS011;47574;52.090;5.244;2022-09-17T11:41:16;9.4;;;2.31;;
61675;SDS011;47574;52.090;5.244;2022-09-17T11:44:41;13.3;;;2.31;;
61675;SDS011;47574;52.090;5.244;2022-09-17T11:46:26;11.4;;;2.5;;
61675;SDS011;47574;52.090;5.244;2022-09-17T11:48:10;8.2;;;1.8;;
61675;SDS011;47574;52.090;5.244;2022-09-17T11:49:53;7.4;;;1.7;;
61675;SDS011;47574;52.090;5.244;2022-09-17T11:54:58;6.3;;;1.8;;
61675;SDS011;47574;52.090;5.244;2022-09-17T11:56:52;6.6;;;1.7;;
61675;SDS011;47574;52.090;5.244;2022-09-17T11:58:41;6.1;;;1.3;;
61675;SDS011;47574;52.090;5.244;2022-09-17T12:00:22;8.6;;;1.8;;
61675;SDS011;47574;52.090;5.244;2022-09-17T12:02:00;7.8;;;2.5;;
61675;SDS011;47574;52.090;5.244;2022-09-17T12:05:25;7.0;;;2.0;;
61675;SDS011;47574;52.090;5.244;2022-09-17T12:07:09;5.3;;;1.5;;
61675;SDS011;47574;52.090;5.244;2022-09-17T12:08:58;7.5;;;1.9;;
61675;SDS011;47574;52.090;5.244;2022-09-17T12:10:41;8.0;;;1.7;;
61675;SDS011;47574;52.090;5.244;2022-09-17T12:12:24;15.7;;;2.31;;
61675;SDS011;47574;52.090;5.244;2022-09-17T12:15:51;9.0;;;2.1;;
61675;SDS011;47574;52.090;5.244;2022-09-17T12:17:46;8.81;;;2.0;;
61675;SDS011;47574;52.090;5.244;2022-09-17T12:19:32;7.8;;;1.7;;
61675;SDS011;47574;52.090;5.244;2022-09-17T12:21:12;10.5;;;2.4;;
61675;SDS011;47574;52.090;5.244;2022-09-17T12:22:54;14.0;;;2.7;;
61675;SDS011;47574;52.090;5.244;2022-09-17T12:26:15;7.9;;;1.9;;
61675;SDS011;47574;52.090;5.244;2022-09-17T12:28:03;11.0;;;2.0;;
61675;SDS011;47574;52.090;5.244;2022-09-17T12:29:48;7.1;;;1.8;;
61675;SDS011;47574;52.090;5.244;2022-09-17T12:31:49;7.3;;;1.8;;
61675;SDS011;47574;52.090;5.244;2022-09-17T12:33:33;8.9;;;2.31;;
61675;SDS011;47574;52.090;5.244;2022-09-17T12:37:10;7.1;;;1.7;;
61675;SDS011;47574;52.090;5.244;2022-09-17T12:39:32;6.5;;;2.31;;
61675;SDS011;47574;52.090;5.244;2022-09-17T12:41:32;8.4;;;1.9;;
61675;SDS011;47574;52.090;5.244;2022-09-17T12:43:27;5.5;;;2.0;;
61675;SDS011;47574;52.090;5.244;2022-09-17T12:45:22;5.3;;;1.7;;
61675;SDS011;47574;52.090;5.244;2022-09-17T12:47:22;5.11;;;1.7;;
61675;SDS011;47574;52.090;5.244;2022-09-17T12:49:41;6.2;;;1.6;;
61675;SDS011;47574;52.090;5.244;2022-09-17T12:51:44;5.8;;;1.6;;
61675;SDS011;47574;52.090;5.244;2022-09-17T12:53:29;9.71;;;2.1;;
61675;SDS011;47574;52.090;5.244;2022-09-17T12:55:22;7.9;;;1.8;;
61675;SDS011;47574;52.090;5.244;2022-09-17T12:57:11;7.9;;;1.8;;
61675;SDS011;47574;52.090;5.244;2022-09-17T12:59:03;5.7;;;1.7;;
61675;SDS011;47574;52.090;5.244;2022-09-17T13:00:45;6.6;;;1.5;;
61675;SDS011;47574;52.090;5.244;2022-09-17T13:04:14;8.71;;;2.0;;
61675;SDS011;47574;52.090;5.244;2022-09-17T13:07:14;7.2;;;1.9;;
61675;SDS011;47574;52.090;5.244;2022-09-17T13:10:19;7.7;;;1.9;;
61675;SDS011;47574;52.090;5.244;2022-09-17T13:13:23;6.4;;;2.0;;